Time;durP1;ratioP1;P1;durP2;ratioP2;P2;SDS_P1;SDS_P2;PMS_P1;PMS_P2;Temp;Humidity;BMP_temperature;BMP_pressure;BME280_temperature;BME280_humidity;BME280_pressure;Samples;Min_cycle;Max_cycle;Signal;HPM_P1;HPM_P2
2022/01/01 00:00:06;;;;;;;122.15;61.65;;;10.20;99.90;;;;;;4851913;29;20343;-61
2022/01/01 00:02:32;;;;;;;117.10;55.40;;;10.20;99.90;;;;;;4845187;29;20127;-61
2022/01/01 00:04:58;;;;;;;123.40;58.35;;;10.20;99.90;;;;;;4852150;29;20451;-60
2022/01/01 00:07:24;;;;;;;124.50;59.97;;;10.10;99.90;;;;;;4863815;29;20076;-60
2022/01/01 00:09:50;;;;;;;121.05;61.97;;;10.10;99.90;;;;;;4851713;29;20561;-61
2022/01/01 00:12:16;;;;;;;112.95;55.05;;;10.10;99.90;;;;;;4866216;29;20418;-60
2022/01/01 00:14:41;;;;;;;111.72;51.97;;;10.10;99.90;;;;;;4867859;29;20049;-60
2022/01/01 00:17:09;;;;;;;106.15;54.03;;;10.10;99.90;;;;;;4864741;29;20103;-61
2022/01/01 00:19:35;;;;;;;108.53;51.00;;;10.10;99.90;;;;;;4851775;29;20056;-60
2022/01/01 00:22:02;;;;;;;106.80;47.53;;;10.10;99.90;;;;;;4881177;29;20060;-60
2022/01/01 00:24:28;;;;;;;103.55;46.78;;;10.10;99.90;;;;;;4847136;29;20058;-60
2022/01/01 00:26:54;;;;;;;100.78;46.63;;;10.10;99.90;;;;;;4865607;29;20594;-59
2022/01/01 00:29:20;;;;;;;95.97;44.15;;;10.10;99.90;;;;;;4862466;29;20048;-61
2022/01/01 00:31:46;;;;;;;94.63;40.13;;;10.10;99.90;;;;;;4861289;29;20171;-60
2022/01/01 00:34:12;;;;;;;88.38;37.25;;;10.10;99.90;;;;;;4881164;29;20075;-60
2022/01/01 00:36:39;;;;;;;84.53;34.60;;;10.20;99.90;;;;;;4879889;29;20060;-59
2022/01/01 00:39:05;;;;;;;78.32;32.15;;;10.20;99.90;;;;;;4862518;29;20607;-60
2022/01/01 00:41:32;;;;;;;70.93;29.60;;;10.20;99.90;;;;;;4868272;29;20135;-61
2022/01/01 00:43:58;;;;;;;71.05;28.40;;;10.20;99.90;;;;;;4866376;29;20584;-61
2022/01/01 00:46:24;;;;;;;76.22;27.63;;;10.20;99.90;;;;;;4881686;29;20044;-60
2022/01/01 00:48:53;;;;;;;82.90;27.95;;;10.20;99.90;;;;;;4876284;29;20388;-60
2022/01/01 00:51:20;;;;;;;73.75;27.98;;;10.10;99.90;;;;;;4866286;29;20488;-59
2022/01/01 00:53:46;;;;;;;74.70;27.52;;;10.10;99.90;;;;;;4860665;29;20554;-60
2022/01/01 00:56:12;;;;;;;66.07;26.48;;;10.10;99.90;;;;;;4847495;29;20511;-60
2022/01/01 00:58:38;;;;;;;70.53;28.65;;;10.10;99.90;;;;;;4843110;29;20139;-60
2022/01/01 01:01:05;;;;;;;71.80;27.75;;;10.10;99.90;;;;;;4854922;29;20056;-60
2022/01/01 01:03:31;;;;;;;64.10;28.13;;;10.10;99.90;;;;;;4869004;29;20063;-60
2022/01/01 01:05:59;;;;;;;71.32;27.95;;;10.00;99.90;;;;;;4876930;29;20107;-61
2022/01/01 01:08:26;;;;;;;75.03;28.70;;;10.00;99.90;;;;;;4862542;29;20671;-60
2022/01/01 01:10:53;;;;;;;79.97;28.10;;;10.00;99.90;;;;;;4864388;29;20052;-60
2022/01/01 01:13:20;;;;;;;66.28;26.10;;;10.00;99.90;;;;;;4875851;29;20060;-60
2022/01/01 01:15:46;;;;;;;72.28;25.50;;;10.00;99.90;;;;;;4851253;29;20054;-61
2022/01/01 01:18:13;;;;;;;71.57;25.00;;;9.90;99.90;;;;;;4881245;29;20099;-59
2022/01/01 01:20:40;;;;;;;67.07;25.23;;;9.90;99.90;;;;;;4849398;29;20595;-60
2022/01/01 01:23:07;;;;;;;69.03;24.77;;;9.90;99.90;;;;;;4862560;29;20052;-60
2022/01/01 01:25:39;;;;;;;67.15;24.17;;;9.90;99.90;;;;;;4860696;29;20055;-60
2022/01/01 01:28:07;;;;;;;77.45;24.02;;;9.80;99.90;;;;;;4863437;29;20053;-60
2022/01/01 01:30:38;;;;;;;67.95;23.95;;;9.80;99.90;;;;;;4863993;29;20515;-60
2022/01/01 01:33:06;;;;;;;71.85;22.38;;;9.80;99.90;;;;;;4846905;29;20122;-59
2022/01/01 01:35:32;;;;;;;65.13;22.40;;;9.80;99.90;;;;;;4876504;29;20062;-61
2022/01/01 01:37:58;;;;;;;60.00;21.08;;;9.80;99.90;;;;;;4879908;29;20087;-60
2022/01/01 01:40:24;;;;;;;77.03;22.80;;;9.70;99.90;;;;;;4865596;29;20044;-61
2022/01/01 01:42:50;;;;;;;71.63;21.85;;;9.70;99.90;;;;;;4862516;29;20247;-59
2022/01/01 01:45:18;;;;;;;59.72;21.45;;;9.80;99.90;;;;;;4877890;29;20911;-60
2022/01/01 01:47:49;;;;;;;77.97;26.70;;;9.70;99.90;;;;;;4863751;29;20416;-60
2022/01/01 01:50:18;;;;;;;83.68;29.05;;;9.70;99.90;;;;;;4861155;29;22811;-60
2022/01/01 01:52:54;;;;;;;93.97;30.38;;;9.60;99.90;;;;;;4860623;29;20052;-60
2022/01/01 01:55:20;;;;;;;79.93;27.73;;;9.60;99.90;;;;;;4860989;29;20064;-60
2022/01/01 01:57:46;;;;;;;67.25;26.27;;;9.60;99.90;;;;;;4866387;29;20057;-60
2022/01/01 02:02:53;;;;;;;61.33;22.88;;;9.60;99.90;;;;;;4861833;29;20048;-60
2022/01/01 02:05:19;;;;;;;74.82;23.90;;;9.60;99.90;;;;;;4874405;29;20052;-60
2022/01/01 02:07:49;;;;;;;78.03;25.55;;;9.60;99.90;;;;;;4877467;29;20542;-60
2022/01/01 02:10:19;;;;;;;83.32;27.52;;;9.50;99.90;;;;;;4879879;29;20837;-60
2022/01/01 02:12:51;;;;;;;78.85;26.75;;;9.60;99.90;;;;;;4877015;29;20075;-61
2022/01/01 02:15:48;;;;;;;94.32;28.60;;;9.60;99.90;;;;;;4843932;29;20067;-61
2022/01/01 02:18:14;;;;;;;86.88;31.60;;;9.60;99.90;;;;;;4846906;29;20139;-59
2022/01/01 02:20:40;;;;;;;87.10;32.55;;;9.60;99.90;;;;;;4859544;29;20056;-61
2022/01/01 02:23:10;;;;;;;109.72;36.65;;;9.60;99.90;;;;;;4860212;29;20064;-60
2022/01/01 02:25:37;;;;;;;110.82;38.28;;;9.70;99.90;;;;;;4861013;29;20140;-60
2022/01/01 02:28:02;;;;;;;124.45;42.10;;;9.70;99.90;;;;;;4877854;29;20556;-61
2022/01/01 02:30:28;;;;;;;122.88;42.95;;;9.80;99.90;;;;;;4862228;29;20049;-60
2022/01/01 02:32:54;;;;;;;124.00;44.58;;;9.80;99.90;;;;;;4865128;29;20044;-60
2022/01/01 02:35:20;;;;;;;130.77;48.78;;;9.80;99.90;;;;;;4864964;29;20596;-60
2022/01/01 02:37:46;;;;;;;149.02;51.25;;;9.80;99.90;;;;;;4866054;29;20052;-61
2022/01/01 02:40:13;;;;;;;135.88;51.58;;;9.90;99.90;;;;;;4881314;29;20061;-61
2022/01/01 02:42:39;;;;;;;129.45;49.83;;;9.90;99.90;;;;;;4862110;29;20504;-60
2022/01/01 02:45:09;;;;;;;135.32;49.47;;;9.90;99.90;;;;;;4865295;29;21911;-60
2022/01/01 02:47:35;;;;;;;138.80;49.35;;;9.90;99.90;;;;;;4860974;29;20055;-61
2022/01/01 02:50:02;;;;;;;120.47;47.90;;;9.90;99.90;;;;;;4864658;29;20059;-60
2022/01/01 02:52:28;;;;;;;133.55;48.72;;;9.90;99.90;;;;;;4863965;29;20596;-60
2022/01/01 02:54:53;;;;;;;128.70;46.20;;;10.00;99.90;;;;;;4878269;29;20048;-60
2022/01/01 02:57:19;;;;;;;128.82;46.28;;;10.00;99.90;;;;;;4880367;29;20056;-61
2022/01/01 02:59:45;;;;;;;134.30;45.90;;;10.00;99.90;;;;;;4880103;29;20099;-61
2022/01/01 03:02:11;;;;;;;119.00;40.42;;;10.00;99.90;;;;;;4880458;29;20045;-61
2022/01/01 03:04:36;;;;;;;123.75;41.60;;;10.00;99.90;;;;;;4881110;29;20048;-59
2022/01/01 03:07:02;;;;;;;117.75;39.25;;;10.00;99.90;;;;;;4867145;29;20160;-60
2022/01/01 03:09:34;;;;;;;124.63;38.67;;;10.00;99.90;;;;;;4861741;29;20135;-61
2022/01/01 03:12:08;;;;;;;116.97;38.50;;;10.00;99.90;;;;;;4847753;29;20275;-60
2022/01/01 03:14:36;;;;;;;108.65;39.05;;;10.00;99.90;;;;;;4864574;29;20071;-60
2022/01/01 03:17:03;;;;;;;113.60;37.50;;;10.00;99.90;;;;;;4881429;29;20063;-61
2022/01/01 03:19:29;;;;;;;102.43;35.83;;;10.00;99.90;;;;;;4862705;29;22179;-61
2022/01/01 03:21:54;;;;;;;108.88;38.00;;;10.00;99.90;;;;;;4865389;29;20052;-59
2022/01/01 03:24:20;;;;;;;103.45;36.67;;;10.00;99.90;;;;;;4880227;29;20155;-60
2022/01/01 03:26:46;;;;;;;115.57;37.15;;;10.10;99.90;;;;;;4849620;29;20060;-60
2022/01/01 03:29:12;;;;;;;114.07;37.95;;;10.00;99.90;;;;;;4864706;29;20056;-60
2022/01/01 03:31:38;;;;;;;120.47;36.80;;;10.10;99.90;;;;;;4866443;29;20071;-61
2022/01/01 03:34:04;;;;;;;122.30;38.95;;;10.10;99.90;;;;;;4864217;29;20454;-61
2022/01/01 03:36:29;;;;;;;108.07;38.33;;;10.10;99.90;;;;;;4842189;29;20511;-60
2022/01/01 03:38:56;;;;;;;128.63;38.95;;;10.10;99.90;;;;;;4876689;29;20621;-60
2022/01/01 03:41:22;;;;;;;119.47;39.00;;;10.10;99.90;;;;;;4864281;29;20052;-61
2022/01/01 03:43:49;;;;;;;115.78;39.38;;;10.10;99.90;;;;;;4876311;29;20068;-60
2022/01/01 03:46:15;;;;;;;110.90;38.03;;;10.10;99.90;;;;;;4863720;29;20127;-61
2022/01/01 03:48:40;;;;;;;108.47;38.65;;;10.10;99.90;;;;;;4879582;29;20390;-60
2022/01/01 03:51:06;;;;;;;109.60;37.08;;;10.10;99.90;;;;;;4862738;29;20067;-60
2022/01/01 03:53:32;;;;;;;104.20;36.38;;;10.10;99.90;;;;;;4862225;29;20500;-61
2022/01/01 03:55:59;;;;;;;120.72;36.38;;;10.10;99.90;;;;;;4864682;29;20076;-60
2022/01/01 03:58:25;;;;;;;104.63;34.38;;;10.10;99.90;;;;;;4877191;29;20115;-60
2022/01/01 04:00:51;;;;;;;101.18;32.90;;;10.10;99.90;;;;;;4865077;29;20044;-60
2022/01/01 04:03:17;;;;;;;99.40;31.90;;;10.10;99.90;;;;;;4847077;29;20208;-59
2022/01/01 04:05:44;;;;;;;96.97;31.73;;;10.10;99.90;;;;;;4863515;29;20140;-60
2022/01/01 04:08:11;;;;;;;101.60;30.27;;;10.10;99.90;;;;;;4863094;29;20049;-60
2022/01/01 04:10:37;;;;;;;106.72;30.73;;;10.10;99.90;;;;;;4847361;29;20142;-61
2022/01/01 04:13:05;;;;;;;88.60;30.40;;;10.10;99.90;;;;;;4880294;29;20056;-60
2022/01/01 04:15:32;;;;;;;95.60;30.38;;;10.10;99.90;;;;;;4862966;29;20052;-60
2022/01/01 04:18:02;;;;;;;97.78;29.98;;;10.10;99.90;;;;;;4878891;29;20143;-60
2022/01/01 04:20:28;;;;;;;100.93;30.77;;;10.00;99.90;;;;;;4844197;29;20052;-59
2022/01/01 04:22:57;;;;;;;103.85;31.95;;;10.00;99.90;;;;;;4862166;29;20060;-59
2022/01/01 04:25:24;;;;;;;94.75;31.77;;;10.00;99.90;;;;;;4862851;29;20108;-61
2022/01/01 04:27:51;;;;;;;101.00;30.95;;;10.00;99.90;;;;;;4879537;29;20340;-60
2022/01/01 04:30:17;;;;;;;101.97;32.03;;;10.00;99.90;;;;;;4862932;29;20064;-60
2022/01/01 04:32:43;;;;;;;96.55;33.92;;;10.00;99.90;;;;;;4867554;29;20056;-60
2022/01/01 04:35:10;;;;;;;87.75;32.33;;;10.00;99.90;;;;;;4862681;29;20056;-60
2022/01/01 04:37:37;;;;;;;95.75;32.38;;;10.00;99.90;;;;;;4861711;29;20135;-60
2022/01/01 04:40:07;;;;;;;99.70;32.95;;;10.00;99.90;;;;;;4863140;29;20052;-59
2022/01/01 04:42:33;;;;;;;94.80;32.78;;;10.00;99.90;;;;;;4879415;29;20076;-60
2022/01/01 04:44:58;;;;;;;95.97;34.28;;;10.00;99.90;;;;;;4862864;29;20216;-61
2022/01/01 04:47:27;;;;;;;96.18;33.08;;;10.00;99.90;;;;;;4877918;29;20048;-60
2022/01/01 04:49:53;;;;;;;93.50;33.05;;;10.00;99.90;;;;;;4877426;29;20048;-60
2022/01/01 04:52:19;;;;;;;95.80;32.78;;;10.00;99.90;;;;;;4846425;29;20393;-61
2022/01/01 04:54:45;;;;;;;93.78;33.17;;;10.00;99.90;;;;;;4864796;29;20060;-60
2022/01/01 04:57:12;;;;;;;93.78;34.03;;;10.00;99.90;;;;;;4878229;29;20091;-60
2022/01/01 04:59:39;;;;;;;94.05;33.90;;;10.00;99.90;;;;;;4878175;29;20044;-60
2022/01/01 05:02:05;;;;;;;82.00;33.33;;;10.00;99.90;;;;;;4860932;29;20044;-60
2022/01/01 05:04:31;;;;;;;97.30;35.08;;;10.00;99.90;;;;;;4878285;29;20044;-59
2022/01/01 05:06:57;;;;;;;98.07;36.72;;;10.00;99.90;;;;;;4848229;29;20563;-60
2022/01/01 05:09:23;;;;;;;98.82;35.40;;;10.00;99.90;;;;;;4862639;29;20067;-59
2022/01/01 05:11:49;;;;;;;96.63;36.47;;;10.00;99.90;;;;;;4878009;29;20045;-60
2022/01/01 05:14:16;;;;;;;97.00;37.92;;;10.00;99.90;;;;;;4864141;29;20072;-60
2022/01/01 05:16:42;;;;;;;100.22;39.78;;;10.10;99.90;;;;;;4860593;29;20508;-60
2022/01/01 05:19:08;;;;;;;115.93;41.22;;;10.10;99.90;;;;;;4876800;29;20081;-60
2022/01/01 05:21:35;;;;;;;104.85;41.30;;;10.10;99.90;;;;;;4847697;29;20080;-60
2022/01/01 05:24:04;;;;;;;114.15;43.95;;;10.10;99.90;;;;;;4830246;29;20128;-60
2022/01/01 05:26:30;;;;;;;115.82;42.70;;;10.10;99.90;;;;;;4861442;29;20053;-60
2022/01/01 05:28:56;;;;;;;112.32;41.83;;;10.10;99.90;;;;;;4876969;29;20558;-60
2022/01/01 05:31:23;;;;;;;105.82;44.33;;;10.10;99.90;;;;;;4881269;29;20047;-60
2022/01/01 05:33:49;;;;;;;124.10;46.97;;;10.10;99.90;;;;;;4875169;29;20049;-60
2022/01/01 05:36:17;;;;;;;122.80;47.85;;;10.20;99.90;;;;;;4848744;29;20048;-60
2022/01/01 05:38:44;;;;;;;132.93;51.83;;;10.20;99.90;;;;;;4859889;29;20048;-60
2022/01/01 05:41:10;;;;;;;133.32;53.92;;;10.20;99.90;;;;;;4863610;29;20045;-60
2022/01/01 05:43:36;;;;;;;135.27;54.42;;;10.20;99.90;;;;;;4862031;29;20436;-60
2022/01/01 05:46:03;;;;;;;131.40;52.15;;;10.20;99.90;;;;;;4846717;29;20068;-60
2022/01/01 05:48:29;;;;;;;126.32;52.80;;;10.20;99.90;;;;;;4859241;29;20655;-60
2022/01/01 05:50:55;;;;;;;126.95;52.28;;;10.30;99.90;;;;;;4861380;29;20052;-60
2022/01/01 05:53:21;;;;;;;123.80;52.85;;;10.20;99.90;;;;;;4861489;29;20060;-60
2022/01/01 05:55:48;;;;;;;115.63;50.35;;;10.20;99.90;;;;;;4876737;29;20056;-60
2022/01/01 05:58:14;;;;;;;103.28;41.15;;;10.20;99.90;;;;;;4862918;29;20511;-60
2022/01/01 06:00:40;;;;;;;100.85;38.50;;;10.20;99.90;;;;;;4863481;29;20413;-60
2022/01/01 06:03:06;;;;;;;98.90;38.05;;;10.20;99.90;;;;;;4877140;29;20057;-60
2022/01/01 06:05:32;;;;;;;97.25;36.83;;;10.20;99.90;;;;;;4878337;29;20063;-60
2022/01/01 06:07:59;;;;;;;101.63;35.97;;;10.10;99.90;;;;;;4875522;29;20407;-60
2022/01/01 06:10:26;;;;;;;108.28;36.08;;;10.10;99.90;;;;;;4862696;29;20050;-60
2022/01/01 06:12:53;;;;;;;108.93;33.53;;;10.10;99.90;;;;;;4849100;29;20048;-59
2022/01/01 06:15:19;;;;;;;97.18;32.92;;;10.10;99.90;;;;;;4878072;29;20076;-60
2022/01/01 06:17:45;;;;;;;102.90;32.45;;;10.10;99.90;;;;;;4860972;29;20049;-60
2022/01/01 06:20:12;;;;;;;123.68;34.97;;;10.10;99.90;;;;;;4860964;29;20171;-60
2022/01/01 06:22:38;;;;;;;112.55;34.95;;;10.10;99.90;;;;;;4861760;29;20065;-60
2022/01/01 06:25:05;;;;;;;120.00;34.35;;;10.10;99.90;;;;;;4878920;29;20048;-60
2022/01/01 06:27:30;;;;;;;125.75;35.20;;;10.00;99.90;;;;;;4861564;29;20062;-60
2022/01/01 06:29:56;;;;;;;123.05;33.95;;;10.00;99.90;;;;;;4862514;29;20048;-60
2022/01/01 06:32:23;;;;;;;124.47;35.97;;;10.10;99.90;;;;;;4848095;29;20346;-60
2022/01/01 06:34:48;;;;;;;145.02;37.45;;;10.10;99.90;;;;;;4850193;29;20527;-60
2022/01/01 06:37:14;;;;;;;148.20;37.75;;;10.10;99.90;;;;;;4879732;29;20053;-59
2022/01/01 06:39:40;;;;;;;126.68;37.10;;;10.10;99.90;;;;;;4863153;29;20048;-60
2022/01/01 06:42:06;;;;;;;122.15;34.67;;;10.10;99.90;;;;;;4864252;29;20057;-60
2022/01/01 06:44:32;;;;;;;128.95;35.35;;;10.10;99.90;;;;;;4863351;29;20445;-60
2022/01/01 06:46:58;;;;;;;129.75;35.60;;;10.10;99.90;;;;;;4863957;29;20048;-60
2022/01/01 06:49:23;;;;;;;122.57;34.85;;;10.20;99.90;;;;;;4846353;29;20055;-60
2022/01/01 06:51:49;;;;;;;119.80;34.38;;;10.10;99.90;;;;;;4841987;29;20706;-60
2022/01/01 06:54:15;;;;;;;109.57;33.35;;;10.10;99.90;;;;;;4863806;29;20048;-61
2022/01/01 06:56:41;;;;;;;105.38;32.13;;;10.20;99.90;;;;;;4877795;29;20353;-60
2022/01/01 06:59:09;;;;;;;115.38;34.03;;;10.20;99.90;;;;;;4878054;29;20048;-59
2022/01/01 07:01:36;;;;;;;112.78;32.33;;;10.20;99.90;;;;;;4862492;29;20060;-60
2022/01/01 07:04:03;;;;;;;101.53;32.55;;;10.20;99.90;;;;;;4862326;29;20056;-60
2022/01/01 07:06:30;;;;;;;112.57;34.38;;;10.20;99.90;;;;;;4862262;29;20072;-60
2022/01/01 07:08:56;;;;;;;101.45;30.90;;;10.20;99.90;;;;;;4860370;29;20069;-60
2022/01/01 07:11:22;;;;;;;105.90;32.72;;;10.20;99.90;;;;;;4845589;29;20136;-60
2022/01/01 07:13:48;;;;;;;94.68;30.45;;;10.20;99.90;;;;;;4876611;29;20465;-61
2022/01/01 07:16:14;;;;;;;106.30;30.33;;;10.20;99.90;;;;;;4864249;29;20468;-60
2022/01/01 07:18:39;;;;;;;107.63;31.98;;;10.30;99.90;;;;;;4878255;29;20045;-60
2022/01/01 07:21:05;;;;;;;106.63;31.48;;;10.20;99.90;;;;;;4868845;29;20445;-60
2022/01/01 07:23:31;;;;;;;100.20;30.40;;;10.20;99.90;;;;;;4844001;29;20132;-60
2022/01/01 07:25:57;;;;;;;108.88;30.65;;;10.30;99.90;;;;;;4865110;29;20614;-60
2022/01/01 07:28:23;;;;;;;91.93;28.05;;;10.30;99.90;;;;;;4866086;29;20052;-59
2022/01/01 07:30:48;;;;;;;100.35;28.73;;;10.30;99.90;;;;;;4866052;29;20079;-60
2022/01/01 07:33:15;;;;;;;87.68;28.10;;;10.30;99.90;;;;;;4866560;29;20081;-60
2022/01/01 07:35:41;;;;;;;91.18;27.25;;;10.30;99.90;;;;;;4864414;29;20099;-60
2022/01/01 07:38:07;;;;;;;88.55;26.17;;;10.30;99.90;;;;;;4850922;29;20562;-60
2022/01/01 07:40:34;;;;;;;94.60;27.38;;;10.40;99.90;;;;;;4881240;29;20136;-60
2022/01/01 07:43:14;;;;;;;92.47;28.52;;;10.40;99.90;;;;;;4865543;29;20481;-60
2022/01/01 07:45:41;;;;;;;89.68;28.25;;;10.40;99.90;;;;;;4880800;29;20155;-60
2022/01/01 07:48:08;;;;;;;90.03;27.58;;;10.40;99.90;;;;;;4882266;29;20056;-60
2022/01/01 07:50:34;;;;;;;95.50;30.10;;;10.40;99.90;;;;;;4866712;29;20048;-60
2022/01/01 07:53:00;;;;;;;100.35;29.70;;;10.40;99.90;;;;;;4880063;29;20405;-60
2022/01/01 07:55:26;;;;;;;97.78;30.13;;;10.40;99.90;;;;;;4862684;29;20052;-60
2022/01/01 07:57:52;;;;;;;106.07;31.05;;;10.40;99.90;;;;;;4864899;29;20056;-60
2022/01/01 08:00:18;;;;;;;102.80;32.05;;;10.40;99.90;;;;;;4864692;29;20044;-60
2022/01/01 08:02:46;;;;;;;92.32;30.20;;;10.50;99.90;;;;;;4881838;29;20075;-60
2022/01/01 08:05:13;;;;;;;94.07;31.77;;;10.50;99.90;;;;;;4863406;29;20056;-60
2022/01/01 08:07:40;;;;;;;105.82;33.17;;;10.50;99.90;;;;;;4878200;29;20044;-60
2022/01/01 08:10:07;;;;;;;109.40;33.72;;;10.50;99.90;;;;;;4847392;29;20532;-60
2022/01/01 08:12:33;;;;;;;98.20;33.25;;;10.60;99.90;;;;;;4867219;29;20052;-60
2022/01/01 08:14:58;;;;;;;102.82;32.85;;;10.60;99.90;;;;;;4868113;29;20500;-59
2022/01/01 08:17:25;;;;;;;95.10;32.50;;;10.60;99.90;;;;;;4845890;29;20052;-60
2022/01/01 08:19:51;;;;;;;94.60;32.80;;;10.60;99.90;;;;;;4884064;29;20472;-60
2022/01/01 08:22:17;;;;;;;106.57;32.65;;;10.70;99.90;;;;;;4866646;29;22109;-60
2022/01/01 08:24:43;;;;;;;113.53;34.53;;;10.70;99.90;;;;;;4882707;29;20052;-60
2022/01/01 08:27:09;;;;;;;102.03;34.92;;;10.70;99.90;;;;;;4864135;29;20055;-60
2022/01/01 08:29:37;;;;;;;117.40;38.05;;;10.80;99.90;;;;;;4848664;29;20052;-60
2022/01/01 08:32:03;;;;;;;110.32;39.55;;;10.80;99.90;;;;;;4865385;29;20501;-61
2022/01/01 08:34:29;;;;;;;126.35;40.45;;;10.80;99.90;;;;;;4880513;29;20136;-60
2022/01/01 08:36:55;;;;;;;124.13;39.42;;;10.90;99.90;;;;;;4864739;29;20055;-60
2022/01/01 08:39:21;;;;;;;111.25;38.53;;;10.90;99.90;;;;;;4867624;29;20040;-60
2022/01/01 08:41:47;;;;;;;111.32;39.08;;;10.90;99.90;;;;;;4870181;29;20048;-60
2022/01/01 08:44:13;;;;;;;116.47;40.35;;;10.90;99.90;;;;;;4868143;29;20499;-60
2022/01/01 08:46:39;;;;;;;121.90;37.45;;;10.90;99.90;;;;;;4849538;29;20052;-60
2022/01/01 08:49:05;;;;;;;105.45;36.88;;;11.00;99.90;;;;;;4865570;29;20876;-60
2022/01/01 08:51:33;;;;;;;98.88;37.03;;;11.10;99.90;;;;;;4869012;29;20987;-60
2022/01/01 08:54:00;;;;;;;102.43;37.33;;;11.00;99.90;;;;;;4885746;29;20852;-60
2022/01/01 08:56:26;;;;;;;93.43;35.78;;;11.10;99.90;;;;;;4868043;29;20067;-60
2022/01/01 08:58:51;;;;;;;98.00;35.97;;;11.10;99.90;;;;;;4868457;29;20052;-60
2022/01/01 09:01:17;;;;;;;98.15;34.58;;;11.20;99.90;;;;;;4868228;29;20326;-60
2022/01/01 09:03:43;;;;;;;90.75;35.92;;;11.20;99.90;;;;;;4866739;29;20048;-61
2022/01/01 09:06:10;;;;;;;94.82;36.75;;;11.20;99.90;;;;;;4864821;29;20160;-60
2022/01/01 09:08:39;;;;;;;93.50;35.55;;;11.20;99.90;;;;;;4864284;29;20473;-60
2022/01/01 09:11:07;;;;;;;89.53;34.70;;;11.30;99.90;;;;;;4852748;29;20060;-60
2022/01/01 09:13:33;;;;;;;78.85;32.75;;;11.30;99.90;;;;;;4862538;29;20535;-60
2022/01/01 09:16:00;;;;;;;99.68;34.47;;;11.30;99.90;;;;;;4863558;29;20056;-61
2022/01/01 09:18:25;;;;;;;81.82;34.08;;;11.40;99.90;;;;;;4880783;29;20049;-59
2022/01/01 09:20:51;;;;;;;81.85;32.22;;;11.50;99.90;;;;;;4863048;29;20556;-60
2022/01/01 09:23:18;;;;;;;74.43;30.73;;;11.50;99.90;;;;;;4863161;29;20405;-60
2022/01/01 09:25:44;;;;;;;73.72;30.63;;;11.50;99.90;;;;;;4846791;29;20052;-60
2022/01/01 09:28:11;;;;;;;77.70;30.05;;;11.50;99.90;;;;;;4865881;29;20056;-59
2022/01/01 09:30:37;;;;;;;73.97;29.83;;;11.50;99.90;;;;;;4880296;29;20104;-59
2022/01/01 09:33:03;;;;;;;77.47;32.08;;;11.50;99.90;;;;;;4864130;29;20464;-60
2022/01/01 09:35:29;;;;;;;72.70;32.33;;;11.50;99.90;;;;;;4860245;29;20052;-60
2022/01/01 09:37:55;;;;;;;72.38;32.17;;;11.60;99.90;;;;;;4863730;29;20543;-60
2022/01/01 09:40:21;;;;;;;74.80;31.73;;;11.60;99.90;;;;;;4858296;29;20059;-60
2022/01/01 09:42:47;;;;;;;66.50;30.85;;;11.60;99.90;;;;;;4860916;29;20040;-60
2022/01/01 09:45:14;;;;;;;61.72;32.20;;;11.70;99.90;;;;;;4864116;29;20112;-60
2022/01/01 09:47:41;;;;;;;58.70;30.25;;;11.70;99.90;;;;;;4864672;29;20060;-60
2022/01/01 09:50:09;;;;;;;59.88;29.10;;;11.70;99.90;;;;;;4882322;29;20048;-60
2022/01/01 09:52:36;;;;;;;53.55;27.60;;;11.80;99.90;;;;;;4866592;29;20424;-60
2022/01/01 09:55:02;;;;;;;58.95;28.02;;;11.80;99.90;;;;;;4885978;29;20052;-59
2022/01/01 09:57:28;;;;;;;46.85;25.33;;;11.80;99.90;;;;;;4867870;29;20060;-59
2022/01/01 09:59:54;;;;;;;59.38;26.17;;;11.90;99.90;;;;;;4867214;29;20104;-60
2022/01/01 10:02:20;;;;;;;47.35;24.63;;;11.90;99.90;;;;;;4867171;29;20666;-59
2022/01/01 10:04:51;;;;;;;49.00;23.77;;;11.90;99.90;;;;;;4882615;29;20071;-60
2022/01/01 10:07:28;;;;;;;48.85;23.77;;;12.00;99.90;;;;;;4866170;29;20044;-60
2022/01/01 10:09:54;;;;;;;48.17;22.50;;;11.90;99.90;;;;;;4866601;29;20052;-60
2022/01/01 10:12:38;;;;;;;46.42;21.40;;;11.90;99.90;;;;;;4866136;29;20491;-60
2022/01/01 10:15:08;;;;;;;41.35;20.88;;;12.00;99.90;;;;;;4865846;29;20056;-60
2022/01/01 10:17:34;;;;;;;41.78;20.70;;;12.00;99.90;;;;;;4877946;29;20062;-60
2022/01/01 10:20:01;;;;;;;51.72;21.20;;;12.00;99.90;;;;;;4876298;29;20049;-60
2022/01/01 10:22:27;;;;;;;35.78;19.05;;;12.00;99.90;;;;;;4879627;29;20071;-60
2022/01/01 10:27:57;;;;;;;42.60;19.60;;;12.10;99.90;;;;;;4864732;29;20496;-60
2022/01/01 10:30:36;;;;;;;38.63;18.20;;;12.10;99.90;;;;;;4877849;29;20053;-60
2022/01/01 10:33:16;;;;;;;42.72;17.80;;;12.10;99.90;;;;;;4878826;29;20041;-59
2022/01/01 10:35:52;;;;;;;44.00;17.60;;;12.10;99.90;;;;;;4864830;29;20057;-60
2022/01/01 10:38:20;;;;;;;36.38;17.45;;;12.10;99.90;;;;;;4882946;29;20055;-60
2022/01/01 10:40:46;;;;;;;41.38;18.52;;;12.10;99.90;;;;;;4866464;29;20048;-60
2022/01/01 10:43:16;;;;;;;36.13;16.95;;;12.10;99.90;;;;;;4867062;29;20560;-60
2022/01/01 10:45:48;;;;;;;34.90;15.77;;;12.10;99.90;;;;;;4883715;29;20051;-60
2022/01/01 10:48:26;;;;;;;39.83;16.60;;;12.20;99.90;;;;;;4881198;29;20128;-60
2022/01/01 10:50:54;;;;;;;36.25;15.07;;;12.10;99.90;;;;;;4883175;29;20560;-60
2022/01/01 10:53:25;;;;;;;29.50;14.77;;;12.10;99.90;;;;;;4868343;29;20055;-60
2022/01/01 10:55:56;;;;;;;34.47;15.65;;;12.20;99.90;;;;;;4870530;29;24379;-60
2022/01/01 10:58:34;;;;;;;31.70;15.43;;;12.20;99.90;;;;;;4871451;29;20120;-59
2022/01/01 11:01:08;;;;;;;32.95;15.75;;;12.20;99.90;;;;;;4855904;29;20052;-59
2022/01/01 11:03:42;;;;;;;35.03;15.68;;;12.20;99.90;;;;;;4886366;29;20048;-59
2022/01/01 11:06:13;;;;;;;33.08;15.00;;;12.20;99.90;;;;;;4870650;29;20060;-60
2022/01/01 11:08:41;;;;;;;29.65;14.73;;;12.30;99.90;;;;;;4848813;29;20056;-59
2022/01/01 11:11:08;;;;;;;33.47;14.93;;;12.30;99.90;;;;;;4870386;29;20397;-59
2022/01/01 11:13:34;;;;;;;33.17;15.60;;;12.20;99.90;;;;;;4870023;29;20048;-60
2022/01/01 11:16:02;;;;;;;35.72;16.90;;;12.20;99.90;;;;;;4886257;29;20097;-60
2022/01/01 11:18:28;;;;;;;29.52;14.90;;;12.20;99.90;;;;;;4869891;29;20056;-60
2022/01/01 11:20:54;;;;;;;27.85;13.50;;;12.20;99.90;;;;;;4885735;29;20438;-60
2022/01/01 11:23:21;;;;;;;26.30;12.55;;;12.20;99.90;;;;;;4854600;29;20064;-60
2022/01/01 11:25:47;;;;;;;29.25;12.18;;;12.30;99.90;;;;;;4869728;29;20048;-60
2022/01/01 11:28:15;;;;;;;23.85;12.07;;;12.30;99.90;;;;;;4886736;29;20358;-61
2022/01/01 11:30:50;;;;;;;27.02;12.20;;;12.30;99.90;;;;;;4870641;29;20545;-59
2022/01/01 11:33:19;;;;;;;26.48;12.73;;;12.40;99.90;;;;;;4885378;29;20059;-60
2022/01/01 11:35:53;;;;;;;27.67;13.20;;;12.30;99.90;;;;;;4868716;29;20131;-60
2022/01/01 11:38:19;;;;;;;24.33;12.82;;;12.40;99.90;;;;;;4869921;29;20115;-60
2022/01/01 11:40:45;;;;;;;22.60;11.20;;;12.40;99.90;;;;;;4869765;29;20505;-60
2022/01/01 11:43:29;;;;;;;27.13;12.15;;;12.40;99.90;;;;;;4854135;29;20055;-59
2022/01/01 11:45:59;;;;;;;24.58;12.68;;;12.40;99.90;;;;;;4869246;29;20107;-60
2022/01/01 11:48:37;;;;;;;23.63;10.82;;;12.40;99.90;;;;;;4838769;29;20139;-60
2022/01/01 11:51:42;;;;;;;23.95;12.18;;;12.40;99.90;;;;;;4869873;29;20060;-60
2022/01/01 11:54:15;;;;;;;24.67;11.45;;;12.50;99.90;;;;;;4869425;29;20064;-60
2022/01/01 11:56:49;;;;;;;26.50;11.27;;;12.50;99.90;;;;;;4868651;29;20052;-60
2022/01/01 11:59:21;;;;;;;24.73;10.52;;;12.50;99.90;;;;;;4868112;29;20053;-60
2022/01/01 12:02:02;;;;;;;20.65;9.80;;;12.50;99.90;;;;;;4886709;29;20400;-60
2022/01/01 12:04:43;;;;;;;20.17;9.68;;;12.50;99.90;;;;;;4868396;29;20496;-60
2022/01/01 12:07:18;;;;;;;19.45;9.00;;;12.50;99.90;;;;;;4869186;29;20553;-60
2022/01/01 12:10:05;;;;;;;21.00;9.32;;;12.50;99.90;;;;;;4886125;29;20052;-60
2022/01/01 12:12:51;;;;;;;25.13;8.82;;;12.50;99.90;;;;;;4886318;29;20127;-60
2022/01/01 12:15:26;;;;;;;21.50;8.90;;;12.50;99.90;;;;;;4869392;29;20311;-60
2022/01/01 12:17:56;;;;;;;22.48;9.13;;;12.50;99.90;;;;;;4868837;29;20066;-60
2022/01/01 12:20:46;;;;;;;21.30;8.95;;;12.50;99.90;;;;;;4885535;29;20066;-60
2022/01/01 12:23:23;;;;;;;23.08;8.60;;;12.50;99.90;;;;;;4868437;29;20068;-60
2022/01/01 12:25:54;;;;;;;21.48;8.00;;;12.50;99.90;;;;;;4884115;29;20044;-60
2022/01/01 12:28:26;;;;;;;20.33;8.88;;;12.50;99.90;;;;;;4886675;29;20044;-60
2022/01/01 12:31:05;;;;;;;21.55;9.00;;;12.50;99.90;;;;;;4885780;29;20095;-59
2022/01/01 12:33:44;;;;;;;20.15;8.45;;;12.50;99.90;;;;;;4868277;29;20199;-60